Terminal Aerodrome Forecast
Issued by NWS Jackson, MS

Home | Current Version | Previous Version | Text Only | Print | Product List | Glossary On
Versions: 1 2 3 4 5 6 7 8 9 10 11 12 13 14 15 16 17 18
000
FTUS44 KJAN 222300
TAFGLH
TAF
KGLH 222320Z 2300/2324 05005KT P6SM BKN040 BKN250
     FM230200 VRB03KT P6SM SCT100 BKN250
     FM231000 00000KT 4SM BR SCT250
     FM231400 32003KT P6SM SCT250
     FM232000 34005KT P6SM SCT050 BKN150=

USA.gov is the U.S. government's official web portal to all federal, state and local government web resources and services.